Redwood City, CA

11:34 AM PDT on October 31, 2014 (GMT -0700)
Redwood Shores - Baltic Circle | Change Station
CLOSE
Current Station
Personal Weather Station
Location: Redwood City, CA
Elevation: -10 ft
Nearby Weather Stations

Elev -10 ft 37.54 °N, 122.24 °W | Updated 9 minutes ago

Light Rain
Light Rain
61.1 °F
Feels Like 61.1 °F
N
4.0
Wind Variable Wind from NW
Gusts 8.0 mph

Today
High -- | Low -- °F
--% Chance of Precip.
Yesterday
High -- | Low -- °F
Precip. -- in
7:33 AM 6:11 PM
First Quarter, 57% visible
Pressure 29.88 in
Visibility 2.5 miles
Clouds Mostly Cloudy 2700 ft
Overcast 3300 ft
Dew Point 58 °F
Humidity 90%
Rainfall 0.24 in
Snow Depth Not available.
UV 1 out of 12
Pollen .50 out of 12
Air Quality Not available.
Flu Activity Not available.
SPECI KSQL 311819Z 27005KT 2 1/2SM -RA BKN027 OVC033 17/14 A2988

More Conditions Fewer Conditions

Pressure 29.88 in
Visibility 2.5 miles
Clouds Mostly Cloudy 2700 ft
Overcast 3300 ft
Dew Point 58 °F
Humidity 90%
Rainfall 0.24 in
Snow Depth Not available.
UV 1 out of 12
Pollen .50 out of 12
Air Quality Not available.
Flu Activity Not available.
SPECI KSQL 311819Z 27005KT 2 1/2SM -RA BKN027 OVC033 17/14 A2988

More Conditions Fewer Conditions

10-Day Weather Forecast

Almanac

Astronomy

Oct. 31, 2014 Rise Set
Actual Time
Civil Twilight
Nautical Twilight
Astronomical Twilight
Moon
Length of Visible Light
Length of Day
Tomorrow will be .
, % of the Moon is Illuminated

Today's Extremes

State Highs State Lows

Community

WunderPhotos

Upload Photos

1,766,690 photos uploaded!

WunderBlogs® & News

Nearby

Air Quality

  Air Quality AQ Index Pollutant
Not available.

Snow Depth

Station Depth Elevation

Earthquake Activity

City Distance Mag. Time & Date
Minimum magnitude displayed is 2.5.

Coastal Water Temperatures

Place Temperature

Nearby Weather Stations